Time;durP1;ratioP1;P1;durP2;ratioP2;P2;SDS_P1;SDS_P2;PMS_P1;PMS_P2;Temp;Humidity;BMP_temperature;BMP_pressure;BME280_temperature;BME280_humidity;BME280_pressure;Samples;Min_cycle;Max_cycle;Signal;HPM_P1;HPM_P2
2023/10/14 00:00:47;;;;;;;15.35;6.47;;;;;;;;;;5112430;28;20484;-63
2023/10/14 00:03:27;;;;;;;10.40;5.70;;;;;;;;;;5112710;28;20059;-63
2023/10/14 00:05:54;;;;;;;10.27;6.03;;;;;;;;;;5112758;28;20416;-63
2023/10/14 00:08:21;;;;;;;9.93;5.00;;;;;;;;;;5112620;28;20055;-63
2023/10/14 00:10:48;;;;;;;11.00;5.43;;;;;;;;;;5112454;28;20058;-63
2023/10/14 00:13:16;;;;;;;11.77;5.70;;;;;;;;;;5112600;28;20426;-63
2023/10/14 00:15:45;;;;;;;14.98;5.53;;;;;;;;;;5112432;28;20043;-62
2023/10/14 00:18:13;;;;;;;10.15;5.47;;;;;;;;;;5114443;28;20515;-62
2023/10/14 00:20:40;;;;;;;8.95;5.63;;;;;;;;;;5116361;28;20062;-62
2023/10/14 00:23:07;;;;;;;8.98;5.53;;;;;;;;;;5116317;28;20055;-62
2023/10/14 00:25:36;;;;;;;9.60;5.40;;;;;;;;;;5116004;28;20062;-63
2023/10/14 00:28:11;;;;;;;11.05;6.05;;;;;;;;;;5116184;28;20054;-63
2023/10/14 00:30:38;;;;;;;7.07;4.97;;;;;;;;;;5115957;28;20052;-62
2023/10/14 00:33:07;;;;;;;9.60;5.18;;;;;;;;;;5113605;28;20055;-62
2023/10/14 00:35:39;;;;;;;12.20;5.05;;;;;;;;;;5116279;28;20439;-62
2023/10/14 00:38:15;;;;;;;8.85;4.72;;;;;;;;;;5116259;28;20058;-62
2023/10/14 00:40:47;;;;;;;12.50;5.22;;;;;;;;;;5116095;28;20059;-62
2023/10/14 00:43:14;;;;;;;10.52;5.05;;;;;;;;;;5116288;28;20399;-62
2023/10/14 00:45:44;;;;;;;8.77;5.22;;;;;;;;;;5111024;28;20063;-62
2023/10/14 00:48:18;;;;;;;10.32;5.85;;;;;;;;;;5095650;28;20067;-62
2023/10/14 00:50:46;;;;;;;7.72;5.40;;;;;;;;;;5095029;28;20052;-61
2023/10/14 00:53:13;;;;;;;12.52;6.05;;;;;;;;;;5094420;28;20412;-62
2023/10/14 00:55:52;;;;;;;9.30;5.38;;;;;;;;;;5093144;28;20051;-62
2023/10/14 00:58:21;;;;;;;8.70;5.53;;;;;;;;;;5086775;28;20041;-63
2023/10/14 01:00:57;;;;;;;8.02;4.93;;;;;;;;;;5074270;28;20056;-62
2023/10/14 01:03:26;;;;;;;11.00;6.22;;;;;;;;;;5075194;28;20417;-63
2023/10/14 01:05:54;;;;;;;11.88;5.70;;;;;;;;;;5074603;28;20056;-62
2023/10/14 01:08:22;;;;;;;9.70;5.50;;;;;;;;;;5074879;28;20048;-62
2023/10/14 01:10:49;;;;;;;9.25;6.00;;;;;;;;;;5074208;28;20394;-62
2023/10/14 01:13:18;;;;;;;8.95;5.30;;;;;;;;;;5074610;28;20060;-62
2023/10/14 01:15:48;;;;;;;11.18;5.72;;;;;;;;;;5076253;28;20056;-62
2023/10/14 01:18:15;;;;;;;6.38;4.93;;;;;;;;;;5114974;28;20146;-62
2023/10/14 01:20:46;;;;;;;8.00;4.90;;;;;;;;;;5115191;28;20063;-62
2023/10/14 01:23:16;;;;;;;7.70;4.72;;;;;;;;;;5114942;28;20074;-63
2023/10/14 01:25:48;;;;;;;9.02;5.18;;;;;;;;;;5114679;28;20056;-63
2023/10/14 01:28:20;;;;;;;7.35;5.00;;;;;;;;;;5115102;28;20047;-63
2023/10/14 01:30:58;;;;;;;7.00;4.68;;;;;;;;;;5113702;28;20052;-63
2023/10/14 01:33:25;;;;;;;7.28;4.75;;;;;;;;;;5115346;28;20500;-62
2023/10/14 01:35:52;;;;;;;8.77;4.68;;;;;;;;;;5115010;28;20485;-62
2023/10/14 01:38:23;;;;;;;7.28;5.07;;;;;;;;;;5114717;28;20063;-62
2023/10/14 01:40:50;;;;;;;10.50;5.32;;;;;;;;;;5114452;28;20054;-62
2023/10/14 01:43:17;;;;;;;8.90;5.45;;;;;;;;;;5115008;28;20052;-63
2023/10/14 01:45:48;;;;;;;8.15;4.63;;;;;;;;;;5113900;28;20059;-62
2023/10/14 01:48:19;;;;;;;7.70;4.82;;;;;;;;;;5114171;28;20400;-62
2023/10/14 01:50:46;;;;;;;6.35;3.88;;;;;;;;;;5114422;28;20058;-61
2023/10/14 01:53:17;;;;;;;7.18;4.38;;;;;;;;;;5114276;28;20064;-62
2023/10/14 01:55:47;;;;;;;7.78;5.20;;;;;;;;;;5114405;28;20051;-64
2023/10/14 01:58:21;;;;;;;;;;;;;;;;;;5114515;28;20043;-63
2023/10/14 02:00:52;;;;;;;5.57;3.65;;;;;;;;;;5114347;28;19927;-62
2023/10/14 02:03:20;;;;;;;4.72;2.72;;;;;;;;;;5114173;28;20051;-63
2023/10/14 02:05:51;;;;;;;2.38;1.55;;;;;;;;;;5114422;28;20067;-63
2023/10/14 02:08:21;;;;;;;2.60;1.80;;;;;;;;;;5114075;28;20058;-63
2023/10/14 02:10:50;;;;;;;6.32;1.50;;;;;;;;;;5113815;28;20066;-63
2023/10/14 02:13:17;;;;;;;2.25;1.00;;;;;;;;;;5114304;28;20388;-64
2023/10/14 02:15:47;;;;;;;1.42;0.90;;;;;;;;;;5112836;28;20048;-63
2023/10/14 02:18:15;;;;;;;1.60;1.05;;;;;;;;;;5093435;28;20052;-63
2023/10/14 02:20:56;;;;;;;1.13;0.70;;;;;;;;;;5093948;28;20385;-63
2023/10/14 02:23:26;;;;;;;2.80;0.80;;;;;;;;;;5093968;28;20626;-63
2023/10/14 02:25:57;;;;;;;1.95;0.70;;;;;;;;;;5093727;28;20488;-63
2023/10/14 02:28:27;;;;;;;1.67;0.63;;;;;;;;;;5093229;28;20044;-63
2023/10/14 02:30:59;;;;;;;1.20;0.60;;;;;;;;;;5093172;28;20500;-63
2023/10/14 02:33:26;;;;;;;0.85;0.50;;;;;;;;;;5092734;28;20087;-63
2023/10/14 02:35:59;;;;;;;1.77;0.52;;;;;;;;;;5092871;28;20056;-63
2023/10/14 02:38:26;;;;;;;1.75;0.50;;;;;;;;;;5093112;28;20048;-63
2023/10/14 02:40:56;;;;;;;0.85;0.28;;;;;;;;;;5092435;28;20048;-63
2023/10/14 02:43:29;;;;;;;0.95;0.30;;;;;;;;;;5093345;28;20047;-63
2023/10/14 02:46:00;;;;;;;0.88;0.40;;;;;;;;;;5092880;28;20067;-63
2023/10/14 02:48:49;;;;;;;1.00;0.40;;;;;;;;;;5092687;28;20485;-64
2023/10/14 02:51:16;;;;;;;2.63;0.45;;;;;;;;;;5092619;28;20067;-63
2023/10/14 02:53:46;;;;;;;1.48;0.43;;;;;;;;;;5092612;28;20054;-63
2023/10/14 02:56:21;;;;;;;1.67;0.60;;;;;;;;;;5092897;28;20052;-63
2023/10/14 02:58:49;;;;;;;0.63;0.35;;;;;;;;;;5092686;28;20489;-63
2023/10/14 03:01:22;;;;;;;0.47;0.20;;;;;;;;;;5092362;28;20055;-64
2023/10/14 03:03:49;;;;;;;1.15;0.50;;;;;;;;;;5092684;28;20048;-63
2023/10/14 03:06:18;;;;;;;3.33;0.40;;;;;;;;;;5092646;28;20052;-63
2023/10/14 03:08:57;;;;;;;1.03;0.40;;;;;;;;;;5093026;28;20055;-64
2023/10/14 03:11:26;;;;;;;1.15;0.32;;;;;;;;;;5092677;28;20052;-63
2023/10/14 03:13:54;;;;;;;1.60;0.63;;;;;;;;;;5092677;28;20059;-63
2023/10/14 03:16:21;;;;;;;0.85;0.30;;;;;;;;;;5092478;28;20792;-63
2023/10/14 03:18:48;;;;;;;1.20;0.52;;;;;;;;;;5092248;28;20052;-62
2023/10/14 03:21:24;;;;;;;1.25;0.50;;;;;;;;;;5092615;28;20056;-63
2023/10/14 03:23:51;;;;;;;0.57;0.32;;;;;;;;;;5092795;28;20059;-63
2023/10/14 03:26:20;;;;;;;1.42;0.52;;;;;;;;;;5092104;28;20044;-64
2023/10/14 03:28:50;;;;;;;1.20;0.75;;;;;;;;;;5092479;28;20405;-63
2023/10/14 03:31:19;;;;;;;1.08;0.50;;;;;;;;;;5092445;28;20411;-64
2023/10/14 03:33:47;;;;;;;1.38;0.70;;;;;;;;;;5092387;28;20111;-63
2023/10/14 03:36:17;;;;;;;1.17;0.57;;;;;;;;;;5091786;28;20083;-64
2023/10/14 03:38:46;;;;;;;2.85;0.80;;;;;;;;;;5092005;28;20055;-64
2023/10/14 03:41:17;;;;;;;1.65;0.80;;;;;;;;;;5092133;28;20052;-64
2023/10/14 03:43:49;;;;;;;1.30;0.52;;;;;;;;;;5092097;28;20458;-64
2023/10/14 03:46:18;;;;;;;3.67;1.15;;;;;;;;;;5082252;28;20417;-64
2023/10/14 03:48:49;;;;;;;3.22;1.02;;;;;;;;;;5071871;28;20409;-64
2023/10/14 03:51:24;;;;;;;2.83;0.80;;;;;;;;;;5071803;28;20056;-64
2023/10/14 03:53:52;;;;;;;3.45;1.25;;;;;;;;;;5075061;28;20386;-64
2023/10/14 03:56:21;;;;;;;3.85;1.33;;;;;;;;;;5075728;28;20489;-64
2023/10/14 03:58:48;;;;;;;;;;;;;;;;;;5076459;28;20052;-64
2023/10/14 04:01:22;;;;;;;3.35;1.20;;;;;;;;;;5076026;28;19924;-64
2023/10/14 04:03:52;;;;;;;3.70;0.90;;;;;;;;;;5075755;28;20075;-64
2023/10/14 04:06:19;;;;;;;3.45;1.10;;;;;;;;;;5075545;28;20055;-64
2023/10/14 04:08:47;;;;;;;6.95;1.30;;;;;;;;;;5075404;28;20100;-64
2023/10/14 04:11:15;;;;;;;3.25;1.15;;;;;;;;;;5075691;28;20059;-64
2023/10/14 04:13:50;;;;;;;2.85;1.17;;;;;;;;;;5075604;28;20055;-64
2023/10/14 04:16:27;;;;;;;2.15;1.17;;;;;;;;;;5075202;28;20409;-64
2023/10/14 04:19:00;;;;;;;3.45;1.30;;;;;;;;;;5075230;28;20048;-64
2023/10/14 04:21:35;;;;;;;4.53;1.20;;;;;;;;;;5075705;28;20060;-64
2023/10/14 04:24:12;;;;;;;3.75;1.02;;;;;;;;;;5075710;28;20079;-64
2023/10/14 04:26:41;;;;;;;3.88;1.15;;;;;;;;;;5075606;28;20049;-64
2023/10/14 04:29:17;;;;;;;3.17;1.48;;;;;;;;;;5075284;28;20049;-64
2023/10/14 04:31:55;;;;;;;2.35;1.23;;;;;;;;;;5075344;28;20052;-64
2023/10/14 04:34:23;;;;;;;4.50;1.63;;;;;;;;;;5075423;28;20063;-64
2023/10/14 04:36:56;;;;;;;3.28;1.25;;;;;;;;;;5075476;28;20056;-63
2023/10/14 04:39:31;;;;;;;8.75;1.88;;;;;;;;;;5075180;28;20056;-64
2023/10/14 04:44:54;;;;;;;6.75;1.60;;;;;;;;;;5081285;28;20060;-64
2023/10/14 04:47:27;;;;;;;4.75;1.67;;;;;;;;;;5093107;28;20056;-64
2023/10/14 04:49:56;;;;;;;4.93;2.00;;;;;;;;;;5095182;28;20044;-64
2023/10/14 04:52:26;;;;;;;4.70;1.85;;;;;;;;;;5095434;28;20147;-64
2023/10/14 04:54:54;;;;;;;4.00;1.40;;;;;;;;;;5094579;28;20420;-64
2023/10/14 04:57:22;;;;;;;2.78;1.20;;;;;;;;;;5095216;28;20063;-64
2023/10/14 04:59:53;;;;;;;2.55;1.23;;;;;;;;;;5095123;28;20048;-64
2023/10/14 05:02:21;;;;;;;7.40;1.83;;;;;;;;;;5095237;28;20058;-64
2023/10/14 05:04:49;;;;;;;7.07;1.30;;;;;;;;;;5093710;28;20052;-64
2023/10/14 05:07:18;;;;;;;6.18;1.33;;;;;;;;;;5094825;28;20540;-63
2023/10/14 05:09:56;;;;;;;4.22;1.27;;;;;;;;;;5094057;28;20051;-63
2023/10/14 05:12:25;;;;;;;4.88;1.40;;;;;;;;;;5094537;28;20055;-63
2023/10/14 05:14:52;;;;;;;;;;;;;;;;;;5094988;28;20052;-63
2023/10/14 05:17:24;;;;;;;6.95;1.70;;;;;;;;;;5094255;28;19920;-63
2023/10/14 05:19:55;;;;;;;7.88;1.77;;;;;;;;;;5094097;28;20052;-62
2023/10/14 05:22:26;;;;;;;9.10;2.08;;;;;;;;;;5094201;28;20063;-62
2023/10/14 05:24:56;;;;;;;6.15;1.77;;;;;;;;;;5094012;28;20052;-62
2023/10/14 05:27:35;;;;;;;7.07;2.17;;;;;;;;;;5093579;28;20056;-63
2023/10/14 05:30:06;;;;;;;3.42;1.50;;;;;;;;;;5093857;28;20055;-63
2023/10/14 05:32:36;;;;;;;7.00;1.52;;;;;;;;;;5114422;28;20058;-63
2023/10/14 05:35:09;;;;;;;3.53;1.67;;;;;;;;;;5114824;28;20062;-63
2023/10/14 05:37:41;;;;;;;6.35;1.95;;;;;;;;;;5114893;28;20070;-63
2023/10/14 05:40:13;;;;;;;7.63;2.25;;;;;;;;;;5114099;28;20051;-63
2023/10/14 05:42:43;;;;;;;6.72;1.70;;;;;;;;;;5114780;28;20104;-63
2023/10/14 05:45:11;;;;;;;;;;;;;;;;;;5114716;28;20050;-63
2023/10/14 05:47:39;;;;;;;4.78;1.55;;;;;;;;;;5094288;28;19920;-64
2023/10/14 05:50:14;;;;;;;3.85;1.05;;;;;;;;;;5093648;28;20063;-63
2023/10/14 05:52:44;;;;;;;3.60;1.30;;;;;;;;;;5093779;28;20472;-63
2023/10/14 05:55:11;;;;;;;5.80;1.92;;;;;;;;;;5093349;28;20063;-64
2023/10/14 05:57:41;;;;;;;5.25;1.40;;;;;;;;;;5093537;28;20065;-63
2023/10/14 06:00:20;;;;;;;5.43;1.70;;;;;;;;;;5093108;28;20488;-63
2023/10/14 06:02:47;;;;;;;;;;;;;;;;;;5094490;28;20052;-64
2023/10/14 06:05:16;;;;;;;7.63;1.80;;;;;;;;;;5093899;28;19920;-64
2023/10/14 06:07:46;;;;;;;6.68;2.08;;;;;;;;;;5093375;28;20082;-64
2023/10/14 06:10:14;;;;;;;7.18;1.92;;;;;;;;;;5093561;28;20386;-64
2023/10/14 06:12:44;;;;;;;7.20;1.83;;;;;;;;;;5093020;28;20055;-64
2023/10/14 06:15:11;;;;;;;5.15;2.13;;;;;;;;;;5092783;28;20409;-63
2023/10/14 06:17:39;;;;;;;7.28;2.33;;;;;;;;;;5093128;28;20056;-63
2023/10/14 06:20:07;;;;;;;7.53;2.30;;;;;;;;;;5093302;28;20054;-63
2023/10/14 06:22:35;;;;;;;7.70;1.92;;;;;;;;;;5093555;28;20056;-63
2023/10/14 06:25:05;;;;;;;5.25;1.95;;;;;;;;;;5093060;28;20052;-63
2023/10/14 06:27:33;;;;;;;6.28;1.98;;;;;;;;;;5093378;28;20401;-63
2023/10/14 06:29:59;;;;;;;7.03;2.05;;;;;;;;;;5093216;28;20496;-63
2023/10/14 06:32:26;;;;;;;8.38;2.15;;;;;;;;;;5093268;28;20048;-64
2023/10/14 06:34:58;;;;;;;4.75;1.70;;;;;;;;;;5092942;28;20056;-64
2023/10/14 06:37:25;;;;;;;4.63;1.90;;;;;;;;;;5093020;28;20481;-64
2023/10/14 06:39:54;;;;;;;5.97;2.33;;;;;;;;;;5093232;28;20048;-64
2023/10/14 06:42:22;;;;;;;4.60;2.00;;;;;;;;;;5093163;28;20055;-64
2023/10/14 06:44:51;;;;;;;6.38;1.80;;;;;;;;;;5092948;28;20059;-64
2023/10/14 06:47:21;;;;;;;3.10;1.15;;;;;;;;;;5092763;28;20056;-65
2023/10/14 06:49:49;;;;;;;4.60;1.48;;;;;;;;;;5092773;28;20040;-64
2023/10/14 06:52:18;;;;;;;6.07;1.35;;;;;;;;;;5092502;28;20055;-64
2023/10/14 06:54:45;;;;;;;5.88;1.60;;;;;;;;;;5092357;28;20056;-63
2023/10/14 06:57:13;;;;;;;8.93;1.63;;;;;;;;;;5092502;28;20052;-63
2023/10/14 06:59:42;;;;;;;3.90;1.50;;;;;;;;;;5092459;28;20055;-63
2023/10/14 07:02:10;;;;;;;4.82;1.48;;;;;;;;;;5092810;28;20060;-63
2023/10/14 07:04:40;;;;;;;4.85;1.23;;;;;;;;;;5092094;28;20059;-64
2023/10/14 07:07:09;;;;;;;4.60;1.55;;;;;;;;;;5092640;28;20063;-64
2023/10/14 07:09:36;;;;;;;4.68;1.38;;;;;;;;;;5092958;28;20432;-63
2023/10/14 07:12:13;;;;;;;4.65;1.25;;;;;;;;;;5092306;28;20052;-64
2023/10/14 07:14:44;;;;;;;5.55;1.65;;;;;;;;;;5092681;28;20059;-63
2023/10/14 07:17:12;;;;;;;4.72;1.52;;;;;;;;;;5091972;28;20055;-63
2023/10/14 07:19:39;;;;;;;6.83;1.80;;;;;;;;;;5092607;28;20056;-63
2023/10/14 07:22:07;;;;;;;5.63;1.70;;;;;;;;;;5092219;28;20059;-63
2023/10/14 07:24:37;;;;;;;6.05;1.60;;;;;;;;;;5091902;28;20489;-63
2023/10/14 07:27:04;;;;;;;4.15;1.40;;;;;;;;;;5092023;28;20055;-63
2023/10/14 07:29:31;;;;;;;8.65;1.98;;;;;;;;;;5096613;28;20058;-63
2023/10/14 07:32:01;;;;;;;2.63;0.98;;;;;;;;;;5096210;28;20048;-64
2023/10/14 07:34:28;;;;;;;5.50;1.73;;;;;;;;;;5096489;28;20059;-64
2023/10/14 07:36:54;;;;;;;3.40;1.50;;;;;;;;;;5095854;28;20075;-64
2023/10/14 07:39:28;;;;;;;4.43;1.40;;;;;;;;;;5095997;28;20052;-63
2023/10/14 07:41:55;;;;;;;5.63;2.30;;;;;;;;;;5096539;28;20052;-64
2023/10/14 07:44:23;;;;;;;5.68;1.98;;;;;;;;;;5096254;28;20119;-63
2023/10/14 07:46:50;;;;;;;3.97;1.60;;;;;;;;;;5095629;28;20055;-61
2023/10/14 07:49:19;;;;;;;4.07;1.58;;;;;;;;;;5096216;28;20052;-64
2023/10/14 07:51:46;;;;;;;6.03;1.77;;;;;;;;;;5095981;28;20048;-64
2023/10/14 07:54:13;;;;;;;5.30;1.52;;;;;;;;;;5096061;28;20056;-62
2023/10/14 07:56:42;;;;;;;4.20;1.67;;;;;;;;;;5096075;28;20404;-62
2023/10/14 07:59:10;;;;;;;;;;;;;;;;;;5095932;28;20056;-62
2023/10/14 08:01:38;;;;;;;4.47;1.27;;;;;;;;;;5095878;28;19920;-63
2023/10/14 08:04:07;;;;;;;2.75;1.60;;;;;;;;;;5116573;28;20058;-63
2023/10/14 08:06:40;;;;;;;4.25;1.63;;;;;;;;;;5116805;28;20051;-63
2023/10/14 08:09:15;;;;;;;5.45;1.88;;;;;;;;;;5116302;28;20059;-63
2023/10/14 08:11:42;;;;;;;6.43;1.80;;;;;;;;;;5116218;28;20043;-63
2023/10/14 08:14:09;;;;;;;4.45;1.67;;;;;;;;;;5116428;28;20476;-63
2023/10/14 08:16:37;;;;;;;3.97;1.60;;;;;;;;;;5115981;28;20475;-64
2023/10/14 08:19:06;;;;;;;3.77;1.77;;;;;;;;;;5115267;28;20055;-63
2023/10/14 08:21:36;;;;;;;4.07;1.58;;;;;;;;;;5114957;28;20062;-63
2023/10/14 08:24:06;;;;;;;5.38;1.85;;;;;;;;;;5115955;28;20059;-63
2023/10/14 08:26:34;;;;;;;3.60;1.27;;;;;;;;;;5116159;28;20420;-63
2023/10/14 08:29:01;;;;;;;7.68;1.70;;;;;;;;;;5116003;28;20059;-63
2023/10/14 08:31:28;;;;;;;6.18;1.58;;;;;;;;;;5116270;28;20048;-63
2023/10/14 08:33:55;;;;;;;6.78;1.83;;;;;;;;;;5115949;28;20412;-62
2023/10/14 08:36:21;;;;;;;5.75;1.80;;;;;;;;;;5115582;28;20051;-62
2023/10/14 08:38:48;;;;;;;6.20;1.67;;;;;;;;;;5115596;28;20051;-62
2023/10/14 08:41:16;;;;;;;5.40;2.05;;;;;;;;;;5115618;28;20508;-62
2023/10/14 08:43:49;;;;;;;6.05;1.70;;;;;;;;;;5115963;28;20051;-62
2023/10/14 08:46:17;;;;;;;6.97;1.70;;;;;;;;;;5105597;28;20512;-62
2023/10/14 08:48:44;;;;;;;4.93;2.27;;;;;;;;;;5095050;28;20071;-61
2023/10/14 08:51:11;;;;;;;5.97;1.63;;;;;;;;;;5094469;28;20063;-63
2023/10/14 08:53:41;;;;;;;6.05;1.75;;;;;;;;;;5095014;28;20055;-63
2023/10/14 08:56:08;;;;;;;6.72;2.17;;;;;;;;;;5094641;28;20060;-62
2023/10/14 08:58:38;;;;;;;8.00;2.17;;;;;;;;;;5094719;28;20055;-63
2023/10/14 09:01:07;;;;;;;5.97;1.63;;;;;;;;;;5094346;28;20048;-63
2023/10/14 09:03:33;;;;;;;6.43;1.50;;;;;;;;;;5094987;28;20063;-62
2023/10/14 09:06:01;;;;;;;3.85;1.50;;;;;;;;;;5094687;28;20056;-64
2023/10/14 09:08:32;;;;;;;3.67;1.52;;;;;;;;;;5094408;28;20412;-64
2023/10/14 09:10:59;;;;;;;5.03;1.80;;;;;;;;;;5094782;28;20096;-64
2023/10/14 09:13:26;;;;;;;4.85;1.80;;;;;;;;;;5094701;28;20052;-63
2023/10/14 09:15:57;;;;;;;3.83;1.65;;;;;;;;;;5094578;28;20059;-63
2023/10/14 09:18:27;;;;;;;6.57;1.77;;;;;;;;;;5094788;28;20382;-64
2023/10/14 09:20:55;;;;;;;5.95;2.00;;;;;;;;;;5094423;28;20047;-63
2023/10/14 09:23:27;;;;;;;5.38;2.00;;;;;;;;;;5094729;28;20055;-64
2023/10/14 09:25:55;;;;;;;4.25;1.80;;;;;;;;;;5094401;28;20059;-63
2023/10/14 09:28:22;;;;;;;4.75;1.77;;;;;;;;;;5094678;28;20052;-64
2023/10/14 09:30:52;;;;;;;5.57;1.90;;;;;;;;;;5094049;28;20056;-64
2023/10/14 09:33:21;;;;;;;6.70;1.83;;;;;;;;;;5094211;28;20059;-64
2023/10/14 09:35:49;;;;;;;9.80;1.75;;;;;;;;;;5093986;28;20056;-64
2023/10/14 09:38:21;;;;;;;4.03;2.20;;;;;;;;;;5094278;28;20155;-64
2023/10/14 09:40:53;;;;;;;3.85;1.60;;;;;;;;;;5093898;28;20048;-64
2023/10/14 09:43:21;;;;;;;6.25;1.90;;;;;;;;;;5094162;28;20052;-64
2023/10/14 09:45:51;;;;;;;6.97;1.73;;;;;;;;;;5093689;28;20052;-64
2023/10/14 09:48:19;;;;;;;6.30;1.60;;;;;;;;;;5094134;28;20059;-64
2023/10/14 09:50:50;;;;;;;5.18;1.67;;;;;;;;;;5093077;28;20063;-64
2023/10/14 09:53:17;;;;;;;4.53;1.70;;;;;;;;;;5093515;28;20059;-64
2023/10/14 09:55:44;;;;;;;5.63;1.80;;;;;;;;;;5093125;28;20489;-64
2023/10/14 09:58:13;;;;;;;8.63;1.92;;;;;;;;;;5094056;28;20056;-64
2023/10/14 10:00:40;;;;;;;7.90;1.87;;;;;;;;;;5093717;28;20485;-64
2023/10/14 10:03:09;;;;;;;9.88;1.83;;;;;;;;;;5093562;28;20478;-64
2023/10/14 10:05:39;;;;;;;4.38;1.38;;;;;;;;;;5093387;28;20075;-64
2023/10/14 10:08:17;;;;;;;9.10;2.10;;;;;;;;;;5093624;28;20063;-64
2023/10/14 10:10:44;;;;;;;;;;;;;;;;;;5093747;28;20052;-64
2023/10/14 10:13:12;;;;;;;4.70;1.67;;;;;;;;;;5094142;28;20279;-65
2023/10/14 10:15:40;;;;;;;5.50;2.00;;;;;;;;;;5093396;28;20063;-64
2023/10/14 10:18:12;;;;;;;3.90;1.70;;;;;;;;;;5093637;28;20048;-64
2023/10/14 10:20:45;;;;;;;4.38;1.50;;;;;;;;;;5093022;28;20052;-64
2023/10/14 10:23:14;;;;;;;4.43;1.40;;;;;;;;;;5093328;28;20400;-64
2023/10/14 10:25:49;;;;;;;6.22;1.65;;;;;;;;;;5093396;28;20048;-63
2023/10/14 10:28:35;;;;;;;7.93;2.20;;;;;;;;;;5093456;28;20063;-63
2023/10/14 10:31:05;;;;;;;6.93;2.83;;;;;;;;;;5093466;28;20059;-63
2023/10/14 10:33:45;;;;;;;6.28;2.45;;;;;;;;;;5093080;28;20059;-63
2023/10/14 10:36:13;;;;;;;4.57;1.70;;;;;;;;;;5093083;28;20093;-63
2023/10/14 10:38:42;;;;;;;4.47;1.83;;;;;;;;;;5092948;28;20489;-64
2023/10/14 10:41:09;;;;;;;;;;;;;;;;;;5093115;28;20466;-64
2023/10/14 10:43:37;;;;;;;4.30;1.25;;;;;;;;;;5093055;28;19920;-64
2023/10/14 10:46:04;;;;;;;4.95;1.85;;;;;;;;;;5092128;28;20083;-64
2023/10/14 10:48:39;;;;;;;6.25;1.83;;;;;;;;;;5092219;28;20056;-64
2023/10/14 10:51:08;;;;;;;5.28;1.50;;;;;;;;;;5092700;28;20052;-63
2023/10/14 10:53:38;;;;;;;6.13;1.70;;;;;;;;;;5092656;28;20051;-63
2023/10/14 10:56:07;;;;;;;4.93;1.42;;;;;;;;;;5092474;28;20416;-64
2023/10/14 10:58:34;;;;;;;5.32;1.40;;;;;;;;;;5092259;28;20435;-64
2023/10/14 11:01:01;;;;;;;5.38;1.50;;;;;;;;;;5092647;28;20404;-64
2023/10/14 11:03:29;;;;;;;6.03;1.83;;;;;;;;;;5091516;28;20460;-64
2023/10/14 11:05:56;;;;;;;5.90;1.48;;;;;;;;;;5092212;28;20070;-64
2023/10/14 11:08:23;;;;;;;3.55;1.50;;;;;;;;;;5092546;28;20477;-63
2023/10/14 11:10:50;;;;;;;4.75;1.60;;;;;;;;;;5091679;28;20056;-64
2023/10/14 11:13:18;;;;;;;3.55;1.48;;;;;;;;;;5092607;28;20048;-64
2023/10/14 11:15:47;;;;;;;6.13;1.35;;;;;;;;;;5092444;28;20058;-65
2023/10/14 11:18:14;;;;;;;5.28;1.73;;;;;;;;;;5092436;28;20055;-65
2023/10/14 11:20:43;;;;;;;5.07;1.77;;;;;;;;;;5091837;28;20063;-65
2023/10/14 11:23:10;;;;;;;6.65;1.80;;;;;;;;;;5092020;28;20044;-64
2023/10/14 11:25:40;;;;;;;3.27;1.40;;;;;;;;;;5092082;28;20059;-65
2023/10/14 11:28:07;;;;;;;3.28;1.10;;;;;;;;;;5092316;28;20059;-65
2023/10/14 11:30:41;;;;;;;4.40;1.35;;;;;;;;;;5092118;28;20056;-64
2023/10/14 11:33:09;;;;;;;3.65;1.08;;;;;;;;;;5092504;28;20066;-65
2023/10/14 11:35:37;;;;;;;6.78;1.65;;;;;;;;;;5092122;28;20048;-65
2023/10/14 11:38:06;;;;;;;5.03;1.73;;;;;;;;;;5092434;28;20056;-64
2023/10/14 11:40:33;;;;;;;4.57;1.73;;;;;;;;;;5092202;28;20052;-64
2023/10/14 11:43:00;;;;;;;4.72;1.55;;;;;;;;;;5092570;28;20063;-64
2023/10/14 11:45:27;;;;;;;4.97;1.40;;;;;;;;;;5092201;28;20052;-64
2023/10/14 11:47:55;;;;;;;3.50;1.33;;;;;;;;;;5092089;28;20048;-65
2023/10/14 11:50:22;;;;;;;5.47;1.75;;;;;;;;;;5092196;28;20060;-65
2023/10/14 11:52:52;;;;;;;4.35;1.63;;;;;;;;;;5092445;28;20465;-65
2023/10/14 11:55:20;;;;;;;3.70;1.40;;;;;;;;;;5092158;28;20052;-65
2023/10/14 11:57:47;;;;;;;3.78;1.25;;;;;;;;;;5092252;28;20063;-65
2023/10/14 12:00:17;;;;;;;4.05;1.40;;;;;;;;;;5091827;28;20052;-64
2023/10/14 12:02:44;;;;;;;4.78;1.40;;;;;;;;;;5091970;28;20080;-63
2023/10/14 12:05:13;;;;;;;3.38;1.52;;;;;;;;;;5091884;28;20059;-63
2023/10/14 12:07:39;;;;;;;3.80;1.20;;;;;;;;;;5092694;28;20047;-63
2023/10/14 12:10:08;;;;;;;3.78;1.40;;;;;;;;;;5091467;28;20070;-63
2023/10/14 12:12:37;;;;;;;5.27;1.60;;;;;;;;;;5092422;28;20055;-63
2023/10/14 12:15:05;;;;;;;4.93;1.50;;;;;;;;;;5095297;28;20458;-63
2023/10/14 12:17:32;;;;;;;5.63;1.65;;;;;;;;;;5095623;28;20048;-62
2023/10/14 12:19:59;;;;;;;5.85;1.50;;;;;;;;;;5095278;28;20052;-62
2023/10/14 12:22:27;;;;;;;4.15;1.58;;;;;;;;;;5095379;28;20063;-62
2023/10/14 12:24:54;;;;;;;3.58;1.58;;;;;;;;;;5095848;28;20060;-62
2023/10/14 12:27:25;;;;;;;3.42;1.20;;;;;;;;;;5095695;28;20063;-63
2023/10/14 12:29:52;;;;;;;3.72;1.45;;;;;;;;;;5095303;28;20497;-62
2023/10/14 12:32:19;;;;;;;3.15;1.20;;;;;;;;;;5094933;28;20055;-62
2023/10/14 12:34:46;;;;;;;4.55;1.50;;;;;;;;;;5095016;28;20052;-62
2023/10/14 12:37:17;;;;;;;3.95;1.80;;;;;;;;;;5093110;28;20408;-62
2023/10/14 12:39:53;;;;;;;4.32;1.10;;;;;;;;;;5095184;28;20055;-66
2023/10/14 12:42:23;;;;;;;4.50;1.67;;;;;;;;;;5095276;28;20056;-63
2023/10/14 12:44:50;;;;;;;4.53;1.55;;;;;;;;;;5094959;28;20048;-63
2023/10/14 12:47:23;;;;;;;7.00;1.48;;;;;;;;;;5095067;28;20386;-63
2023/10/14 12:49:50;;;;;;;4.35;1.35;;;;;;;;;;5095195;28;20488;-63
2023/10/14 12:52:19;;;;;;;5.00;1.73;;;;;;;;;;5095095;28;20535;-62
2023/10/14 12:54:56;;;;;;;4.63;1.58;;;;;;;;;;5094973;28;20056;-63
2023/10/14 12:57:23;;;;;;;4.53;1.20;;;;;;;;;;5095184;28;20051;-62
2023/10/14 12:59:50;;;;;;;3.58;1.35;;;;;;;;;;5095214;28;20532;-62
2023/10/14 13:02:20;;;;;;;5.03;1.50;;;;;;;;;;5094811;28;20055;-63
2023/10/14 13:04:47;;;;;;;4.70;1.70;;;;;;;;;;5094946;28;20062;-62
2023/10/14 13:07:14;;;;;;;3.17;1.50;;;;;;;;;;5094822;28;20048;-62
2023/10/14 13:09:41;;;;;;;2.90;1.52;;;;;;;;;;5094969;28;20507;-62
2023/10/14 13:12:16;;;;;;;3.30;1.75;;;;;;;;;;5094582;28;20059;-62
2023/10/14 13:14:43;;;;;;;4.70;1.70;;;;;;;;;;5094654;28;20488;-62
2023/10/14 13:17:10;;;;;;;4.35;1.88;;;;;;;;;;5094629;28;20519;-62
2023/10/14 13:19:37;;;;;;;2.95;1.08;;;;;;;;;;5094746;28;20495;-63
2023/10/14 13:22:09;;;;;;;11.35;3.38;;;;;;;;;;5094527;28;20059;-62
2023/10/14 13:24:36;;;;;;;7.00;1.10;;;;;;;;;;5094218;28;20044;-62
2023/10/14 13:27:03;;;;;;;3.55;1.20;;;;;;;;;;5094003;28;20390;-63
2023/10/14 13:29:31;;;;;;;6.35;1.55;;;;;;;;;;5094574;28;20051;-62
2023/10/14 13:31:59;;;;;;;3.65;1.20;;;;;;;;;;5094369;28;20515;-62
2023/10/14 13:34:26;;;;;;;5.10;1.60;;;;;;;;;;5094341;28;20052;-62
2023/10/14 13:36:53;;;;;;;4.40;1.20;;;;;;;;;;5088083;28;20059;-62
2023/10/14 13:39:20;;;;;;;4.43;1.45;;;;;;;;;;5074151;28;20052;-62
2023/10/14 13:41:48;;;;;;;5.20;2.28;;;;;;;;;;5073846;28;20175;-62
2023/10/14 13:44:15;;;;;;;3.85;2.40;;;;;;;;;;5073517;28;20048;-62
2023/10/14 13:46:44;;;;;;;4.82;3.30;;;;;;;;;;5086444;28;20373;-62
2023/10/14 13:49:11;;;;;;;3.00;2.15;;;;;;;;;;5094078;28;20106;-62
2023/10/14 13:51:40;;;;;;;3.78;1.10;;;;;;;;;;5093843;28;20056;-62
2023/10/14 13:54:07;;;;;;;3.72;2.00;;;;;;;;;;5093585;28;20063;-62
2023/10/14 13:56:34;;;;;;;6.60;2.45;;;;;;;;;;5093647;28;20055;-62
2023/10/14 13:59:03;;;;;;;5.90;2.42;;;;;;;;;;5113765;28;20386;-63
2023/10/14 14:01:30;;;;;;;3.97;2.60;;;;;;;;;;5114258;28;20091;-62
2023/10/14 14:04:00;;;;;;;3.90;2.38;;;;;;;;;;5114343;28;20053;-62
2023/10/14 14:06:28;;;;;;;3.53;1.08;;;;;;;;;;5114381;28;20597;-62
2023/10/14 14:08:55;;;;;;;3.47;1.27;;;;;;;;;;5113767;28;20051;-61
2023/10/14 14:11:23;;;;;;;4.03;1.50;;;;;;;;;;5113957;28;20732;-61
2023/10/14 14:13:50;;;;;;;2.97;1.38;;;;;;;;;;5114060;28;20047;-61
2023/10/14 14:16:18;;;;;;;6.80;1.75;;;;;;;;;;5113973;28;20134;-62
2023/10/14 14:18:48;;;;;;;4.20;1.80;;;;;;;;;;5113383;28;20048;-61
2023/10/14 14:21:17;;;;;;;2.88;1.17;;;;;;;;;;5113645;28;20056;-61
2023/10/14 14:23:44;;;;;;;3.08;1.27;;;;;;;;;;5113585;28;20051;-61
2023/10/14 14:26:17;;;;;;;5.57;1.60;;;;;;;;;;5113361;28;20051;-62
2023/10/14 14:28:44;;;;;;;3.60;1.20;;;;;;;;;;5113647;28;20435;-61
2023/10/14 14:31:12;;;;;;;3.95;1.48;;;;;;;;;;5113384;28;20051;-61
2023/10/14 14:33:40;;;;;;;2.58;1.10;;;;;;;;;;5113979;28;20051;-61
2023/10/14 14:36:10;;;;;;;3.80;1.20;;;;;;;;;;5113036;28;20059;-62
2023/10/14 14:38:39;;;;;;;3.55;0.93;;;;;;;;;;5113238;28;20075;-62
2023/10/14 14:41:07;;;;;;;2.33;1.10;;;;;;;;;;5113206;28;20047;-61
2023/10/14 14:43:35;;;;;;;2.70;1.00;;;;;;;;;;5113466;28;20055;-60
2023/10/14 14:46:02;;;;;;;2.83;1.13;;;;;;;;;;5105876;28;20473;-61
2023/10/14 14:48:28;;;;;;;8.57;1.48;;;;;;;;;;5092814;28;20056;-61
2023/10/14 14:50:55;;;;;;;4.05;1.38;;;;;;;;;;5092408;28;20048;-61
2023/10/14 14:53:22;;;;;;;4.25;1.30;;;;;;;;;;5091844;28;20059;-61
2023/10/14 14:55:50;;;;;;;3.40;1.30;;;;;;;;;;5092386;28;20048;-62
2023/10/14 14:58:17;;;;;;;6.00;1.40;;;;;;;;;;5092544;28;20048;-62
2023/10/14 15:00:44;;;;;;;4.63;1.55;;;;;;;;;;5092276;28;20384;-62